sensor_id;sensor_type;location;lat;lon;timestamp;P1;durP1;ratioP1;P2;durP2;ratioP2
19946;SDS011;10135;50.702;7.276;2023-04-25T05:00:34;11.07;;;4.03;;
19946;SDS011;10135;50.702;7.276;2023-04-25T05:02:35;7.87;;;4.37;;
19946;SDS011;10135;50.702;7.276;2023-04-25T05:04:37;7.27;;;3.93;;
19946;SDS011;10135;50.702;7.276;2023-04-25T05:06:37;10.73;;;4.30;;
19946;SDS011;10135;50.702;7.276;2023-04-25T05:08:38;7.40;;;4.20;;
19946;SDS011;10135;50.702;7.276;2023-04-25T05:10:39;9.13;;;4.17;;
19946;SDS011;10135;50.702;7.276;2023-04-25T05:12:40;10.37;;;4.40;;
19946;SDS011;10135;50.702;7.276;2023-04-25T05:14:41;13.70;;;4.40;;
19946;SDS011;10135;50.702;7.276;2023-04-25T05:16:42;6.60;;;3.97;;
19946;SDS011;10135;50.702;7.276;2023-04-25T05:18:43;8.23;;;4.07;;
19946;SDS011;10135;50.702;7.276;2023-04-25T05:20:44;8.30;;;4.10;;
19946;SDS011;10135;50.702;7.276;2023-04-25T05:22:44;8.47;;;4.30;;
19946;SDS011;10135;50.702;7.276;2023-04-25T05:24:45;7.90;;;4.30;;
19946;SDS011;10135;50.702;7.276;2023-04-25T05:26:46;7.57;;;3.63;;
19946;SDS011;10135;50.702;7.276;2023-04-25T05:28:46;7.97;;;4.47;;
19946;SDS011;10135;50.702;7.276;2023-04-25T05:30:47;9.07;;;4.40;;
19946;SDS011;10135;50.702;7.276;2023-04-25T05:32:48;11.43;;;4.60;;
19946;SDS011;10135;50.702;7.276;2023-04-25T05:34:49;7.63;;;4.10;;
19946;SDS011;10135;50.702;7.276;2023-04-25T05:36:49;7.30;;;4.33;;
19946;SDS011;10135;50.702;7.276;2023-04-25T05:38:50;11.33;;;4.53;;
19946;SDS011;10135;50.702;7.276;2023-04-25T05:40:51;10.47;;;4.40;;
19946;SDS011;10135;50.702;7.276;2023-04-25T05:42:51;12.67;;;4.87;;
19946;SDS011;10135;50.702;7.276;2023-04-25T05:44:52;9.63;;;4.70;;
19946;SDS011;10135;50.702;7.276;2023-04-25T05:46:52;11.87;;;5.03;;
19946;SDS011;10135;50.702;7.276;2023-04-25T05:48:53;7.17;;;4.30;;
19946;SDS011;10135;50.702;7.276;2023-04-25T05:50:54;9.50;;;4.67;;
19946;SDS011;10135;50.702;7.276;2023-04-25T05:52:55;12.30;;;5.20;;
19946;SDS011;10135;50.702;7.276;2023-04-25T05:54:55;11.37;;;4.90;;
19946;SDS011;10135;50.702;7.276;2023-04-25T05:56:56;11.13;;;4.50;;
19946;SDS011;10135;50.702;7.276;2023-04-25T05:58:57;9.63;;;4.63;;
19946;SDS011;10135;50.702;7.276;2023-04-25T06:00:58;11.10;;;4.77;;
19946;SDS011;10135;50.702;7.276;2023-04-25T06:02:59;10.03;;;4.87;;
19946;SDS011;10135;50.702;7.276;2023-04-25T06:05:00;9.37;;;4.67;;
19946;SDS011;10135;50.702;7.276;2023-04-25T06:07:03;7.43;;;4.90;;
19946;SDS011;10135;50.702;7.276;2023-04-25T06:09:03;9.93;;;4.70;;
19946;SDS011;10135;50.702;7.276;2023-04-25T06:11:04;11.60;;;4.70;;
19946;SDS011;10135;50.702;7.276;2023-04-25T06:13:05;13.57;;;4.90;;
19946;SDS011;10135;50.702;7.276;2023-04-25T06:15:06;12.17;;;4.93;;
19946;SDS011;10135;50.702;7.276;2023-04-25T06:17:07;12.50;;;4.90;;
19946;SDS011;10135;50.702;7.276;2023-04-25T06:19:08;8.47;;;5.17;;
19946;SDS011;10135;50.702;7.276;2023-04-25T06:21:09;9.33;;;4.70;;
19946;SDS011;10135;50.702;7.276;2023-04-25T06:23:09;11.60;;;5.10;;
19946;SDS011;10135;50.702;7.276;2023-04-25T06:25:10;12.13;;;5.27;;
19946;SDS011;10135;50.702;7.276;2023-04-25T06:27:10;11.53;;;4.70;;
19946;SDS011;10135;50.702;7.276;2023-04-25T06:29:11;7.33;;;4.77;;
19946;SDS011;10135;50.702;7.276;2023-04-25T06:31:12;9.60;;;4.67;;
19946;SDS011;10135;50.702;7.276;2023-04-25T06:33:12;11.63;;;4.83;;
19946;SDS011;10135;50.702;7.276;2023-04-25T06:35:13;12.50;;;4.77;;
19946;SDS011;10135;50.702;7.276;2023-04-25T06:37:14;10.63;;;4.70;;
19946;SDS011;10135;50.702;7.276;2023-04-25T06:39:14;12.70;;;4.97;;
19946;SDS011;10135;50.702;7.276;2023-04-25T06:41:15;14.37;;;5.13;;
19946;SDS011;10135;50.702;7.276;2023-04-25T06:43:16;13.03;;;4.60;;
19946;SDS011;10135;50.702;7.276;2023-04-25T06:45:16;8.90;;;4.30;;
19946;SDS011;10135;50.702;7.276;2023-04-25T06:47:17;8.83;;;4.07;;
19946;SDS011;10135;50.702;7.276;2023-04-25T06:49:17;9.17;;;4.20;;
19946;SDS011;10135;50.702;7.276;2023-04-25T06:51:18;10.53;;;4.33;;
19946;SDS011;10135;50.702;7.276;2023-04-25T06:53:19;12.00;;;4.30;;
19946;SDS011;10135;50.702;7.276;2023-04-25T06:55:19;9.67;;;4.30;;
19946;SDS011;10135;50.702;7.276;2023-04-25T06:57:20;11.57;;;4.20;;
19946;SDS011;10135;50.702;7.276;2023-04-25T06:59:21;11.13;;;5.03;;
19946;SDS011;10135;50.702;7.276;2023-04-25T07:01:21;9.53;;;4.13;;
19946;SDS011;10135;50.702;7.276;2023-04-25T07:03:22;8.27;;;4.13;;
19946;SDS011;10135;50.702;7.276;2023-04-25T07:05:23;8.07;;;4.20;;
19946;SDS011;10135;50.702;7.276;2023-04-25T07:07:24;8.70;;;4.40;;
19946;SDS011;10135;50.702;7.276;2023-04-25T07:09:25;12.07;;;4.23;;
19946;SDS011;10135;50.702;7.276;2023-04-25T07:11:26;8.93;;;4.40;;
19946;SDS011;10135;50.702;7.276;2023-04-25T07:13:26;10.23;;;4.57;;
19946;SDS011;10135;50.702;7.276;2023-04-25T07:15:27;10.23;;;4.53;;
19946;SDS011;10135;50.702;7.276;2023-04-25T07:17:28;8.03;;;4.20;;
19946;SDS011;10135;50.702;7.276;2023-04-25T07:19:28;12.50;;;4.27;;
19946;SDS011;10135;50.702;7.276;2023-04-25T07:21:29;8.83;;;4.23;;
19946;SDS011;10135;50.702;7.276;2023-04-25T07:23:31;13.10;;;3.80;;
19946;SDS011;10135;50.702;7.276;2023-04-25T07:25:31;8.93;;;4.27;;
19946;SDS011;10135;50.702;7.276;2023-04-25T07:27:32;10.47;;;3.67;;
19946;SDS011;10135;50.702;7.276;2023-04-25T07:29:33;11.77;;;3.90;;
19946;SDS011;10135;50.702;7.276;2023-04-25T07:31:36;10.47;;;3.80;;
19946;SDS011;10135;50.702;7.276;2023-04-25T07:33:37;12.00;;;4.10;;
19946;SDS011;10135;50.702;7.276;2023-04-25T07:35:38;10.27;;;3.77;;
19946;SDS011;10135;50.702;7.276;2023-04-25T07:37:39;5.37;;;3.50;;
19946;SDS011;10135;50.702;7.276;2023-04-25T07:39:39;8.30;;;3.70;;
19946;SDS011;10135;50.702;7.276;2023-04-25T07:41:40;12.47;;;3.57;;
19946;SDS011;10135;50.702;7.276;2023-04-25T07:43:41;7.07;;;3.33;;
19946;SDS011;10135;50.702;7.276;2023-04-25T07:45:42;12.17;;;3.77;;
19946;SDS011;10135;50.702;7.276;2023-04-25T07:47:44;8.90;;;3.60;;
19946;SDS011;10135;50.702;7.276;2023-04-25T07:49:44;9.27;;;3.47;;
19946;SDS011;10135;50.702;7.276;2023-04-25T07:51:45;8.60;;;3.40;;
19946;SDS011;10135;50.702;7.276;2023-04-25T07:53:46;7.23;;;3.60;;
19946;SDS011;10135;50.702;7.276;2023-04-25T07:55:47;7.27;;;3.50;;
19946;SDS011;10135;50.702;7.276;2023-04-25T07:57:48;9.83;;;3.50;;
19946;SDS011;10135;50.702;7.276;2023-04-25T07:59:49;6.87;;;3.53;;
19946;SDS011;10135;50.702;7.276;2023-04-25T08:01:49;6.40;;;3.30;;
19946;SDS011;10135;50.702;7.276;2023-04-25T08:03:50;5.77;;;3.17;;
19946;SDS011;10135;50.702;7.276;2023-04-25T08:05:51;8.97;;;2.90;;
19946;SDS011;10135;50.702;7.276;2023-04-25T08:07:51;6.30;;;3.00;;
19946;SDS011;10135;50.702;7.276;2023-04-25T08:09:52;7.97;;;3.00;;
19946;SDS011;10135;50.702;7.276;2023-04-25T08:11:54;11.73;;;3.10;;
19946;SDS011;10135;50.702;7.276;2023-04-25T08:13:54;7.77;;;2.60;;
19946;SDS011;10135;50.702;7.276;2023-04-25T08:15:55;6.87;;;2.60;;
19946;SDS011;10135;50.702;7.276;2023-04-25T08:17:55;5.90;;;2.80;;
19946;SDS011;10135;50.702;7.276;2023-04-25T08:19:56;8.97;;;2.73;;
19946;SDS011;10135;50.702;7.276;2023-04-25T08:21:57;9.40;;;3.10;;
19946;SDS011;10135;50.702;7.276;2023-04-25T08:23:57;8.93;;;3.03;;
19946;SDS011;10135;50.702;7.276;2023-04-25T08:25:58;8.33;;;3.10;;
19946;SDS011;10135;50.702;7.276;2023-04-25T08:27:59;6.63;;;2.83;;
19946;SDS011;10135;50.702;7.276;2023-04-25T08:30:02;8.13;;;3.20;;
19946;SDS011;10135;50.702;7.276;2023-04-25T08:32:04;5.43;;;2.37;;
19946;SDS011;10135;50.702;7.276;2023-04-25T08:34:04;9.10;;;3.17;;
19946;SDS011;10135;50.702;7.276;2023-04-25T08:36:05;6.40;;;3.00;;
19946;SDS011;10135;50.702;7.276;2023-04-25T08:38:06;7.07;;;2.87;;
19946;SDS011;10135;50.702;7.276;2023-04-25T08:40:07;8.73;;;2.83;;
19946;SDS011;10135;50.702;7.276;2023-04-25T08:42:15;5.63;;;3.20;;
19946;SDS011;10135;50.702;7.276;2023-04-25T08:44:15;10.03;;;3.00;;
19946;SDS011;10135;50.702;7.276;2023-04-25T08:46:19;8.10;;;2.93;;
19946;SDS011;10135;50.702;7.276;2023-04-25T08:48:20;12.27;;;3.30;;
19946;SDS011;10135;50.702;7.276;2023-04-25T08:50:24;8.30;;;3.00;;
19946;SDS011;10135;50.702;7.276;2023-04-25T08:52:27;6.63;;;4.03;;
19946;SDS011;10135;50.702;7.276;2023-04-25T08:54:32;8.57;;;3.60;;
19946;SDS011;10135;50.702;7.276;2023-04-25T08:56:34;6.40;;;3.37;;
19946;SDS011;10135;50.702;7.276;2023-04-25T08:58:35;7.70;;;4.10;;
19946;SDS011;10135;50.702;7.276;2023-04-25T09:00:36;11.07;;;3.50;;
19946;SDS011;10135;50.702;7.276;2023-04-25T09:02:38;9.97;;;3.83;;
19946;SDS011;10135;50.702;7.276;2023-04-25T09:04:40;11.40;;;5.70;;
19946;SDS011;10135;50.702;7.276;2023-04-25T09:06:43;9.43;;;3.80;;
19946;SDS011;10135;50.702;7.276;2023-04-25T09:08:44;9.67;;;4.13;;
19946;SDS011;10135;50.702;7.276;2023-04-25T09:10:44;10.07;;;3.80;;
19946;SDS011;10135;50.702;7.276;2023-04-25T09:13:01;5.50;;;3.37;;
19946;SDS011;10135;50.702;7.276;2023-04-25T09:15:12;7.07;;;3.13;;
19946;SDS011;10135;50.702;7.276;2023-04-25T09:17:13;5.67;;;2.73;;
19946;SDS011;10135;50.702;7.276;2023-04-25T09:19:20;6.10;;;2.53;;
19946;SDS011;10135;50.702;7.276;2023-04-25T09:21:23;4.77;;;3.13;;
19946;SDS011;10135;50.702;7.276;2023-04-25T09:23:23;6.77;;;2.63;;
19946;SDS011;10135;50.702;7.276;2023-04-25T09:25:24;5.57;;;2.43;;
19946;SDS011;10135;50.702;7.276;2023-04-25T09:27:25;5.13;;;2.60;;
19946;SDS011;10135;50.702;7.276;2023-04-25T09:29:36;4.73;;;2.73;;
19946;SDS011;10135;50.702;7.276;2023-04-25T09:31:38;5.03;;;2.10;;
19946;SDS011;10135;50.702;7.276;2023-04-25T09:33:40;5.63;;;2.50;;
19946;SDS011;10135;50.702;7.276;2023-04-25T09:35:42;4.93;;;2.40;;
19946;SDS011;10135;50.702;7.276;2023-04-25T09:37:43;5.73;;;2.40;;
19946;SDS011;10135;50.702;7.276;2023-04-25T09:39:46;6.70;;;2.37;;
19946;SDS011;10135;50.702;7.276;2023-04-25T09:41:53;8.17;;;3.20;;
19946;SDS011;10135;50.702;7.276;2023-04-25T09:43:56;9.37;;;2.73;;
19946;SDS011;10135;50.702;7.276;2023-04-25T09:45:58;7.20;;;3.07;;
19946;SDS011;10135;50.702;7.276;2023-04-25T09:48:03;5.40;;;2.50;;
19946;SDS011;10135;50.702;7.276;2023-04-25T09:50:16;6.17;;;2.40;;
19946;SDS011;10135;50.702;7.276;2023-04-25T09:52:19;3.87;;;2.30;;
19946;SDS011;10135;50.702;7.276;2023-04-25T09:54:25;3.40;;;2.70;;
19946;SDS011;10135;50.702;7.276;2023-04-25T09:56:26;6.83;;;3.20;;
19946;SDS011;10135;50.702;7.276;2023-04-25T09:58:36;7.03;;;3.00;;
19946;SDS011;10135;50.702;7.276;2023-04-25T10:00:38;5.10;;;2.67;;
19946;SDS011;10135;50.702;7.276;2023-04-25T10:02:42;6.67;;;2.83;;
19946;SDS011;10135;50.702;7.276;2023-04-25T10:04:50;3.80;;;2.30;;
19946;SDS011;10135;50.702;7.276;2023-04-25T10:06:55;5.00;;;2.30;;
19946;SDS011;10135;50.702;7.276;2023-04-25T10:08:57;5.60;;;2.67;;
19946;SDS011;10135;50.702;7.276;2023-04-25T10:11:02;3.90;;;2.83;;
19946;SDS011;10135;50.702;7.276;2023-04-25T10:13:07;9.17;;;2.93;;
19946;SDS011;10135;50.702;7.276;2023-04-25T10:15:09;5.80;;;2.80;;
19946;SDS011;10135;50.702;7.276;2023-04-25T10:17:10;6.33;;;2.97;;
19946;SDS011;10135;50.702;7.276;2023-04-25T10:19:11;3.87;;;2.50;;
19946;SDS011;10135;50.702;7.276;2023-04-25T10:21:13;6.83;;;2.67;;
19946;SDS011;10135;50.702;7.276;2023-04-25T10:23:16;6.87;;;2.47;;
19946;SDS011;10135;50.702;7.276;2023-04-25T10:25:17;4.73;;;2.70;;
19946;SDS011;10135;50.702;7.276;2023-04-25T10:27:18;4.83;;;2.60;;
19946;SDS011;10135;50.702;7.276;2023-04-25T10:29:22;4.63;;;2.40;;
19946;SDS011;10135;50.702;7.276;2023-04-25T10:31:25;7.60;;;2.67;;
19946;SDS011;10135;50.702;7.276;2023-04-25T10:33:44;6.67;;;2.60;;
19946;SDS011;10135;50.702;7.276;2023-04-25T10:35:44;8.03;;;3.23;;
19946;SDS011;10135;50.702;7.276;2023-04-25T10:40:14;6.93;;;2.63;;
19946;SDS011;10135;50.702;7.276;2023-04-25T10:42:22;4.20;;;2.33;;
19946;SDS011;10135;50.702;7.276;2023-04-25T10:44:27;4.20;;;2.33;;
19946;SDS011;10135;50.702;7.276;2023-04-25T10:46:32;5.33;;;2.70;;
19946;SDS011;10135;50.702;7.276;2023-04-25T10:48:35;5.97;;;2.97;;
19946;SDS011;10135;50.702;7.276;2023-04-25T10:50:38;4.00;;;2.60;;
19946;SDS011;10135;50.702;7.276;2023-04-25T10:52:39;5.57;;;2.70;;
19946;SDS011;10135;50.702;7.276;2023-04-25T10:55:02;6.60;;;2.37;;
19946;SDS011;10135;50.702;7.276;2023-04-25T10:57:03;3.57;;;2.20;;
19946;SDS011;10135;50.702;7.276;2023-04-25T10:59:05;4.60;;;2.10;;
19946;SDS011;10135;50.702;7.276;2023-04-25T11:01:07;6.60;;;2.27;;
19946;SDS011;10135;50.702;7.276;2023-04-25T11:03:07;3.47;;;2.10;;
19946;SDS011;10135;50.702;7.276;2023-04-25T11:05:09;4.93;;;1.90;;
19946;SDS011;10135;50.702;7.276;2023-04-25T11:07:53;3.40;;;2.07;;
19946;SDS011;10135;50.702;7.276;2023-04-25T11:09:52;8.67;;;2.23;;
19946;SDS011;10135;50.702;7.276;2023-04-25T11:11:54;4.17;;;1.90;;
19946;SDS011;10135;50.702;7.276;2023-04-25T11:13:56;4.90;;;2.23;;
19946;SDS011;10135;50.702;7.276;2023-04-25T11:15:56;7.43;;;2.30;;
19946;SDS011;10135;50.702;7.276;2023-04-25T11:17:57;3.87;;;2.07;;
19946;SDS011;10135;50.702;7.276;2023-04-25T11:19:58;3.03;;;1.97;;
19946;SDS011;10135;50.702;7.276;2023-04-25T11:22:00;4.70;;;2.10;;
19946;SDS011;10135;50.702;7.276;2023-04-25T11:24:02;3.27;;;2.33;;
19946;SDS011;10135;50.702;7.276;2023-04-25T11:26:04;4.90;;;2.00;;
19946;SDS011;10135;50.702;7.276;2023-04-25T11:28:05;2.87;;;2.10;;
19946;SDS011;10135;50.702;7.276;2023-04-25T11:30:12;5.87;;;2.30;;
19946;SDS011;10135;50.702;7.276;2023-04-25T11:32:15;5.23;;;2.20;;
19946;SDS011;10135;50.702;7.276;2023-04-25T11:34:18;4.57;;;2.13;;
19946;SDS011;10135;50.702;7.276;2023-04-25T11:36:19;4.67;;;2.10;;
19946;SDS011;10135;50.702;7.276;2023-04-25T11:38:20;5.70;;;2.53;;
19946;SDS011;10135;50.702;7.276;2023-04-25T11:40:21;2.90;;;2.37;;
19946;SDS011;10135;50.702;7.276;2023-04-25T11:42:22;7.73;;;2.10;;
19946;SDS011;10135;50.702;7.276;2023-04-25T11:44:22;6.70;;;2.40;;
19946;SDS011;10135;50.702;7.276;2023-04-25T11:46:23;4.13;;;2.00;;
19946;SDS011;10135;50.702;7.276;2023-04-25T11:48:24;4.37;;;2.23;;
19946;SDS011;10135;50.702;7.276;2023-04-25T11:50:25;7.13;;;2.20;;
19946;SDS011;10135;50.702;7.276;2023-04-25T11:54:46;6.40;;;2.00;;
19946;SDS011;10135;50.702;7.276;2023-04-25T11:56:46;9.60;;;2.13;;
19946;SDS011;10135;50.702;7.276;2023-04-25T11:59:00;3.43;;;2.13;;
19946;SDS011;10135;50.702;7.276;2023-04-25T12:01:05;5.87;;;2.13;;
19946;SDS011;10135;50.702;7.276;2023-04-25T12:03:08;4.23;;;1.80;;
19946;SDS011;10135;50.702;7.276;2023-04-25T12:05:10;3.57;;;2.10;;
19946;SDS011;10135;50.702;7.276;2023-04-25T12:07:12;6.13;;;2.10;;
19946;SDS011;10135;50.702;7.276;2023-04-25T12:09:13;3.83;;;2.13;;
19946;SDS011;10135;50.702;7.276;2023-04-25T12:11:21;5.50;;;2.00;;
19946;SDS011;10135;50.702;7.276;2023-04-25T12:13:23;6.23;;;2.00;;
19946;SDS011;10135;50.702;7.276;2023-04-25T12:15:26;4.50;;;1.80;;
19946;SDS011;10135;50.702;7.276;2023-04-25T12:17:28;5.27;;;2.23;;
19946;SDS011;10135;50.702;7.276;2023-04-25T12:19:32;5.30;;;2.23;;
19946;SDS011;10135;50.702;7.276;2023-04-25T12:21:34;4.30;;;2.00;;
19946;SDS011;10135;50.702;7.276;2023-04-25T12:23:37;4.00;;;2.13;;
19946;SDS011;10135;50.702;7.276;2023-04-25T12:25:40;3.53;;;1.70;;
19946;SDS011;10135;50.702;7.276;2023-04-25T12:27:43;11.43;;;2.03;;
19946;SDS011;10135;50.702;7.276;2023-04-25T12:29:50;6.30;;;1.83;;
19946;SDS011;10135;50.702;7.276;2023-04-25T12:31:54;4.37;;;1.70;;
19946;SDS011;10135;50.702;7.276;2023-04-25T12:33:56;5.10;;;2.00;;
19946;SDS011;10135;50.702;7.276;2023-04-25T12:35:57;2.97;;;1.90;;
19946;SDS011;10135;50.702;7.276;2023-04-25T12:37:59;4.67;;;1.80;;
19946;SDS011;10135;50.702;7.276;2023-04-25T12:39:59;4.50;;;2.10;;
19946;SDS011;10135;50.702;7.276;2023-04-25T12:42:00;3.03;;;1.80;;
19946;SDS011;10135;50.702;7.276;2023-04-25T12:44:01;3.03;;;1.90;;
19946;SDS011;10135;50.702;7.276;2023-04-25T12:46:01;5.57;;;1.90;;
19946;SDS011;10135;50.702;7.276;2023-04-25T12:48:02;2.33;;;1.70;;
19946;SDS011;10135;50.702;7.276;2023-04-25T12:50:03;3.73;;;1.60;;
19946;SDS011;10135;50.702;7.276;2023-04-25T12:52:04;6.63;;;2.43;;
19946;SDS011;10135;50.702;7.276;2023-04-25T12:54:05;2.27;;;1.40;;
19946;SDS011;10135;50.702;7.276;2023-04-25T12:56:09;4.10;;;2.10;;
19946;SDS011;10135;50.702;7.276;2023-04-25T12:58:11;2.87;;;1.80;;
19946;SDS011;10135;50.702;7.276;2023-04-25T13:00:12;4.73;;;2.50;;
19946;SDS011;10135;50.702;7.276;2023-04-25T13:02:14;2.87;;;1.70;;
19946;SDS011;10135;50.702;7.276;2023-04-25T13:04:15;1.97;;;1.60;;
19946;SDS011;10135;50.702;7.276;2023-04-25T13:06:16;2.23;;;1.70;;
19946;SDS011;10135;50.702;7.276;2023-04-25T13:08:18;2.53;;;1.77;;
19946;SDS011;10135;50.702;7.276;2023-04-25T13:10:19;4.00;;;2.13;;
19946;SDS011;10135;50.702;7.276;2023-04-25T13:12:20;3.43;;;1.80;;
19946;SDS011;10135;50.702;7.276;2023-04-25T13:14:20;1.97;;;1.63;;
19946;SDS011;10135;50.702;7.276;2023-04-25T13:16:21;4.17;;;1.67;;
19946;SDS011;10135;50.702;7.276;2023-04-25T13:18:22;4.13;;;1.93;;
19946;SDS011;10135;50.702;7.276;2023-04-25T13:20:26;4.03;;;2.03;;
19946;SDS011;10135;50.702;7.276;2023-04-25T13:22:26;5.13;;;1.90;;
19946;SDS011;10135;50.702;7.276;2023-04-25T13:24:27;2.60;;;1.77;;
19946;SDS011;10135;50.702;7.276;2023-04-25T13:26:28;4.93;;;1.90;;
19946;SDS011;10135;50.702;7.276;2023-04-25T13:28:29;3.23;;;2.07;;
19946;SDS011;10135;50.702;7.276;2023-04-25T13:30:29;3.70;;;1.73;;
19946;SDS011;10135;50.702;7.276;2023-04-25T13:32:30;1.90;;;1.80;;
19946;SDS011;10135;50.702;7.276;2023-04-25T13:34:31;2.70;;;1.70;;
19946;SDS011;10135;50.702;7.276;2023-04-25T13:36:31;4.43;;;1.60;;
19946;SDS011;10135;50.702;7.276;2023-04-25T13:38:32;5.60;;;1.83;;
19946;SDS011;10135;50.702;7.276;2023-04-25T13:40:33;2.73;;;1.70;;
19946;SDS011;10135;50.702;7.276;2023-04-25T13:42:33;3.30;;;1.70;;
19946;SDS011;10135;50.702;7.276;2023-04-25T13:44:35;2.40;;;1.80;;
19946;SDS011;10135;50.702;7.276;2023-04-25T13:46:35;4.33;;;1.70;;
19946;SDS011;10135;50.702;7.276;2023-04-25T13:48:37;2.73;;;1.73;;
19946;SDS011;10135;50.702;7.276;2023-04-25T13:50:37;2.33;;;1.40;;
19946;SDS011;10135;50.702;7.276;2023-04-25T13:52:38;1.77;;;1.50;;
19946;SDS011;10135;50.702;7.276;2023-04-25T13:54:40;1.67;;;1.57;;
19946;SDS011;10135;50.702;7.276;2023-04-25T13:56:40;3.23;;;1.60;;
19946;SDS011;10135;50.702;7.276;2023-04-25T13:58:42;3.30;;;1.50;;
19946;SDS011;10135;50.702;7.276;2023-04-25T14:00:42;1.70;;;1.50;;
19946;SDS011;10135;50.702;7.276;2023-04-25T14:02:45;3.03;;;1.60;;
19946;SDS011;10135;50.702;7.276;2023-04-25T14:04:46;1.80;;;1.60;;
19946;SDS011;10135;50.702;7.276;2023-04-25T14:06:47;2.77;;;1.60;;
19946;SDS011;10135;50.702;7.276;2023-04-25T14:08:48;3.83;;;1.50;;
19946;SDS011;10135;50.702;7.276;2023-04-25T14:10:50;3.97;;;1.70;;
19946;SDS011;10135;50.702;7.276;2023-04-25T14:12:50;2.70;;;1.70;;
19946;SDS011;10135;50.702;7.276;2023-04-25T14:14:51;7.20;;;1.40;;
19946;SDS011;10135;50.702;7.276;2023-04-25T14:16:55;7.40;;;1.60;;
19946;SDS011;10135;50.702;7.276;2023-04-25T14:18:57;3.80;;;1.60;;
19946;SDS011;10135;50.702;7.276;2023-04-25T14:20:58;4.90;;;1.80;;
19946;SDS011;10135;50.702;7.276;2023-04-25T14:22:59;5.23;;;1.80;;
19946;SDS011;10135;50.702;7.276;2023-04-25T14:25:00;2.70;;;1.53;;
19946;SDS011;10135;50.702;7.276;2023-04-25T14:27:01;2.60;;;1.70;;
19946;SDS011;10135;50.702;7.276;2023-04-25T14:29:03;4.17;;;1.70;;
19946;SDS011;10135;50.702;7.276;2023-04-25T14:31:08;3.10;;;1.70;;
19946;SDS011;10135;50.702;7.276;2023-04-25T14:33:09;1.50;;;1.40;;
19946;SDS011;10135;50.702;7.276;2023-04-25T14:35:10;2.43;;;1.53;;
19946;SDS011;10135;50.702;7.276;2023-04-25T14:37:11;2.07;;;1.67;;
19946;SDS011;10135;50.702;7.276;2023-04-25T14:39:12;1.60;;;1.60;;
19946;SDS011;10135;50.702;7.276;2023-04-25T14:41:14;2.03;;;1.60;;
19946;SDS011;10135;50.702;7.276;2023-04-25T14:43:14;2.80;;;1.70;;
19946;SDS011;10135;50.702;7.276;2023-04-25T14:45:15;1.70;;;1.60;;
19946;SDS011;10135;50.702;7.276;2023-04-25T14:47:16;1.23;;;1.23;;
19946;SDS011;10135;50.702;7.276;2023-04-25T14:49:17;1.50;;;1.50;;
19946;SDS011;10135;50.702;7.276;2023-04-25T14:51:18;4.57;;;1.60;;
19946;SDS011;10135;50.702;7.276;2023-04-25T14:53:18;5.10;;;1.80;;
19946;SDS011;10135;50.702;7.276;2023-04-25T14:55:19;2.10;;;1.50;;
19946;SDS011;10135;50.702;7.276;2023-04-25T14:57:20;3.73;;;2.23;;
19946;SDS011;10135;50.702;7.276;2023-04-25T14:59:21;4.00;;;1.80;;
19946;SDS011;10135;50.702;7.276;2023-04-25T15:01:22;2.43;;;1.50;;
19946;SDS011;10135;50.702;7.276;2023-04-25T15:03:23;2.90;;;1.60;;
19946;SDS011;10135;50.702;7.276;2023-04-25T15:05:24;2.20;;;1.60;;
19946;SDS011;10135;50.702;7.276;2023-04-25T15:07:25;3.77;;;1.60;;
19946;SDS011;10135;50.702;7.276;2023-04-25T15:09:26;2.67;;;1.50;;
19946;SDS011;10135;50.702;7.276;2023-04-25T15:11:27;1.80;;;1.60;;
19946;SDS011;10135;50.702;7.276;2023-04-25T15:13:27;1.70;;;1.60;;
19946;SDS011;10135;50.702;7.276;2023-04-25T15:15:28;3.37;;;1.63;;
19946;SDS011;10135;50.702;7.276;2023-04-25T15:17:29;2.03;;;1.47;;
19946;SDS011;10135;50.702;7.276;2023-04-25T15:19:30;1.83;;;1.47;;
19946;SDS011;10135;50.702;7.276;2023-04-25T15:21:31;2.63;;;1.53;;
19946;SDS011;10135;50.702;7.276;2023-04-25T15:23:32;3.40;;;1.50;;
19946;SDS011;10135;50.702;7.276;2023-04-25T15:25:33;1.70;;;1.60;;
19946;SDS011;10135;50.702;7.276;2023-04-25T15:27:34;1.40;;;1.30;;
19946;SDS011;10135;50.702;7.276;2023-04-25T15:29:39;1.60;;;1.50;;
19946;SDS011;10135;50.702;7.276;2023-04-25T15:31:40;2.47;;;1.33;;
19946;SDS011;10135;50.702;7.276;2023-04-25T15:33:41;3.80;;;1.50;;
19946;SDS011;10135;50.702;7.276;2023-04-25T15:35:41;2.00;;;1.60;;
19946;SDS011;10135;50.702;7.276;2023-04-25T15:37:42;1.27;;;1.23;;
19946;SDS011;10135;50.702;7.276;2023-04-25T15:39:43;1.40;;;1.30;;
19946;SDS011;10135;50.702;7.276;2023-04-25T15:41:44;3.37;;;1.60;;
19946;SDS011;10135;50.702;7.276;2023-04-25T15:43:46;2.50;;;1.37;;
19946;SDS011;10135;50.702;7.276;2023-04-25T15:45:47;2.03;;;1.10;;
19946;SDS011;10135;50.702;7.276;2023-04-25T15:47:48;1.40;;;1.30;;
19946;SDS011;10135;50.702;7.276;2023-04-25T15:49:50;1.27;;;1.23;;
19946;SDS011;10135;50.702;7.276;2023-04-25T15:51:51;1.73;;;1.17;;
19946;SDS011;10135;50.702;7.276;2023-04-25T15:53:51;2.40;;;1.10;;
19946;SDS011;10135;50.702;7.276;2023-04-25T15:55:52;1.10;;;1.10;;
19946;SDS011;10135;50.702;7.276;2023-04-25T15:57:53;2.87;;;1.37;;
19946;SDS011;10135;50.702;7.276;2023-04-25T15:59:53;3.27;;;1.40;;
19946;SDS011;10135;50.702;7.276;2023-04-25T16:01:55;1.33;;;1.20;;
19946;SDS011;10135;50.702;7.276;2023-04-25T16:03:56;1.10;;;1.10;;
19946;SDS011;10135;50.702;7.276;2023-04-25T16:05:57;0.90;;;0.90;;
19946;SDS011;10135;50.702;7.276;2023-04-25T16:07:58;1.97;;;0.90;;
19946;SDS011;10135;50.702;7.276;2023-04-25T16:09:59;1.30;;;1.20;;
19946;SDS011;10135;50.702;7.276;2023-04-25T16:12:00;2.37;;;1.17;;
19946;SDS011;10135;50.702;7.276;2023-04-25T16:14:01;1.33;;;1.13;;
19946;SDS011;10135;50.702;7.276;2023-04-25T16:16:01;2.33;;;1.10;;
19946;SDS011;10135;50.702;7.276;2023-04-25T16:18:02;1.87;;;1.27;;
19946;SDS011;10135;50.702;7.276;2023-04-25T16:20:03;1.10;;;1.10;;
19946;SDS011;10135;50.702;7.276;2023-04-25T16:22:08;1.43;;;1.17;;
19946;SDS011;10135;50.702;7.276;2023-04-25T16:24:12;1.37;;;1.20;;
19946;SDS011;10135;50.702;7.276;2023-04-25T16:26:12;2.03;;;1.20;;
19946;SDS011;10135;50.702;7.276;2023-04-25T16:28:13;2.70;;;1.60;;
19946;SDS011;10135;50.702;7.276;2023-04-25T16:30:14;2.20;;;1.37;;
19946;SDS011;10135;50.702;7.276;2023-04-25T16:32:15;1.43;;;1.33;;
19946;SDS011;10135;50.702;7.276;2023-04-25T16:34:15;1.20;;;1.20;;
19946;SDS011;10135;50.702;7.276;2023-04-25T16:36:16;1.00;;;1.00;;
19946;SDS011;10135;50.702;7.276;2023-04-25T16:38:18;2.33;;;1.30;;
19946;SDS011;10135;50.702;7.276;2023-04-25T16:40:18;1.23;;;1.10;;
19946;SDS011;10135;50.702;7.276;2023-04-25T16:42:19;2.23;;;1.50;;
19946;SDS011;10135;50.702;7.276;2023-04-25T16:44:20;2.13;;;1.30;;
19946;SDS011;10135;50.702;7.276;2023-04-25T16:46:21;1.50;;;1.40;;
19946;SDS011;10135;50.702;7.276;2023-04-25T16:48:22;1.20;;;1.20;;
19946;SDS011;10135;50.702;7.276;2023-04-25T16:50:23;2.63;;;1.60;;
19946;SDS011;10135;50.702;7.276;2023-04-25T16:52:24;2.07;;;1.50;;
19946;SDS011;10135;50.702;7.276;2023-04-25T16:54:24;2.33;;;1.40;;
19946;SDS011;10135;50.702;7.276;2023-04-25T16:56:25;1.50;;;1.40;;
19946;SDS011;10135;50.702;7.276;2023-04-25T16:58:26;1.47;;;1.13;;
19946;SDS011;10135;50.702;7.276;2023-04-25T17:00:27;2.73;;;1.23;;
19946;SDS011;10135;50.702;7.276;2023-04-25T17:02:28;1.60;;;1.30;;
19946;SDS011;10135;50.702;7.276;2023-04-25T17:04:29;1.40;;;1.30;;
19946;SDS011;10135;50.702;7.276;2023-04-25T17:06:29;1.63;;;1.50;;
19946;SDS011;10135;50.702;7.276;2023-04-25T17:08:30;2.20;;;1.50;;
19946;SDS011;10135;50.702;7.276;2023-04-25T17:10:32;4.37;;;1.53;;
19946;SDS011;10135;50.702;7.276;2023-04-25T17:12:32;3.10;;;1.30;;
19946;SDS011;10135;50.702;7.276;2023-04-25T17:14:33;2.37;;;1.40;;
19946;SDS011;10135;50.702;7.276;2023-04-25T17:16:35;1.50;;;1.33;;